Time;durP1;ratioP1;P1;durP2;ratioP2;P2;SDS_P1;SDS_P2;PMS_P1;PMS_P2;Temp;Humidity;BMP_temperature;BMP_pressure;BME280_temperature;BME280_humidity;BME280_pressure;Samples;Min_cycle;Max_cycle;Signal;HPM_P1;HPM_P2
2021/10/31 00:01:09;;;;;;;2.50;1.17;;;10.20;99.90;;;;;;5012766;28;20210;-83
2021/10/31 00:03:42;;;;;;;2.87;1.03;;;10.20;99.90;;;;;;5013363;28;20221;-84
2021/10/31 00:06:25;;;;;;;4.00;1.00;;;10.20;99.90;;;;;;5011322;28;20293;-84
2021/10/31 00:08:59;;;;;;;2.37;1.27;;;10.00;99.90;;;;;;5008268;28;20302;-84
2021/10/31 00:11:30;;;;;;;3.70;1.43;;;9.90;99.90;;;;;;5000614;28;20232;-83
2021/10/31 00:14:02;;;;;;;1.40;1.23;;;9.80;99.90;;;;;;4998454;28;20222;-84
2021/10/31 00:16:35;;;;;;;2.00;1.43;;;9.80;99.90;;;;;;4997332;28;20233;-84
2021/10/31 00:19:09;;;;;;;1.40;1.07;;;9.70;99.90;;;;;;5001669;28;20198;-84
2021/10/31 00:21:44;;;;;;;1.13;1.03;;;9.60;99.90;;;;;;4998805;28;20202;-86
2021/10/31 00:24:19;;;;;;;2.17;1.37;;;9.50;99.90;;;;;;4998245;28;20210;-84
2021/10/31 00:26:50;;;;;;;1.83;1.00;;;9.40;99.90;;;;;;4998499;28;20216;-86
2021/10/31 00:29:24;;;;;;;3.23;1.20;;;9.40;99.90;;;;;;5016583;28;20210;-84
2021/10/31 00:32:00;;;;;;;3.87;1.17;;;9.20;99.90;;;;;;5017993;28;20268;-85
2021/10/31 00:34:32;;;;;;;2.00;1.30;;;9.10;99.90;;;;;;5017725;28;20272;-85
2021/10/31 00:37:04;;;;;;;2.00;1.20;;;8.90;99.90;;;;;;5017346;28;20361;-84
2021/10/31 00:39:36;;;;;;;1.60;1.20;;;8.70;99.90;;;;;;5017211;28;20213;-82
2021/10/31 00:42:11;;;;;;;1.80;1.23;;;8.60;99.90;;;;;;5017121;28;20217;-85
2021/10/31 00:44:42;;;;;;;2.23;1.10;;;8.50;99.90;;;;;;5016649;28;20681;-84
2021/10/31 00:47:13;;;;;;;1.93;1.13;;;8.40;99.90;;;;;;5016663;28;20621;-85
2021/10/31 00:49:44;;;;;;;2.90;1.10;;;8.30;99.90;;;;;;5016645;28;20221;-85
2021/10/31 00:52:19;;;;;;;1.50;1.20;;;8.30;99.90;;;;;;5016190;28;20259;-85
2021/10/31 00:54:58;;;;;;;2.20;1.53;;;8.20;99.90;;;;;;5016649;28;20233;-85
2021/10/31 00:57:30;;;;;;;3.07;1.30;;;8.20;99.90;;;;;;5017374;28;20213;-85
2021/10/31 01:00:01;;;;;;;2.20;1.30;;;8.10;99.90;;;;;;5015763;28;20221;-83
2021/10/31 01:02:33;;;;;;;2.80;1.10;;;8.00;99.90;;;;;;5017603;28;20293;-86
2021/10/31 01:05:06;;;;;;;1.17;1.00;;;7.90;99.90;;;;;;5015483;28;20234;-85
2021/10/31 01:08:11;;;;;;;2.83;1.27;;;7.80;99.90;;;;;;5017205;28;20228;-85
2021/10/31 01:11:13;;;;;;;3.40;1.50;;;7.70;99.90;;;;;;5016816;28;20226;-83
2021/10/31 01:14:01;;;;;;;2.97;1.50;;;7.60;99.90;;;;;;5017163;28;20218;-86
2021/10/31 01:16:48;;;;;;;3.73;2.00;;;7.50;99.90;;;;;;5016820;28;20216;-85
2021/10/31 01:19:36;;;;;;;3.07;1.40;;;7.40;99.90;;;;;;5018904;28;20303;-84
2021/10/31 01:22:18;;;;;;;2.13;1.20;;;7.40;99.90;;;;;;5020336;28;20229;-85
2021/10/31 01:25:05;;;;;;;1.63;1.50;;;7.30;99.90;;;;;;5020984;28;20276;-84
2021/10/31 01:27:49;;;;;;;2.37;1.90;;;7.40;99.90;;;;;;5022185;28;20205;-84
2021/10/31 01:30:29;;;;;;;2.10;1.57;;;7.20;99.90;;;;;;5002820;28;20212;-84
2021/10/31 01:33:12;;;;;;;5.23;3.87;;;7.10;99.90;;;;;;5004521;28;20211;-83
2021/10/31 01:35:59;;;;;;;3.03;2.63;;;7.00;99.90;;;;;;5017076;28;20263;-89
2021/10/31 01:38:49;;;;;;;2.87;2.37;;;6.90;99.90;;;;;;5020535;28;20222;-87
2021/10/31 01:41:36;;;;;;;4.43;2.70;;;6.90;99.90;;;;;;5015154;28;20213;-88
2021/10/31 01:44:19;;;;;;;4.60;2.50;;;6.80;99.90;;;;;;5020049;28;20205;-87
2021/10/31 01:47:01;;;;;;;5.73;3.47;;;6.80;99.90;;;;;;5019486;28;20757;-87
2021/10/31 01:49:46;;;;;;;3.10;2.20;;;6.70;99.90;;;;;;5014092;28;20213;-87
2021/10/31 01:52:22;;;;;;;2.60;2.40;;;6.70;99.90;;;;;;5006920;28;20206;-87
2021/10/31 01:54:57;;;;;;;3.63;2.90;;;6.60;99.90;;;;;;5012754;28;20216;-87
2021/10/31 01:57:30;;;;;;;3.80;2.60;;;6.60;99.90;;;;;;5025009;28;20274;-86
2021/10/31 02:00:07;;;;;;;4.33;2.57;;;6.50;99.90;;;;;;5024659;28;20268;-87
2021/10/31 02:02:42;;;;;;;3.43;1.90;;;6.50;99.90;;;;;;5028016;28;20233;-89
2021/10/31 02:05:17;;;;;;;2.03;1.80;;;6.40;99.90;;;;;;5034154;28;20201;-87
2021/10/31 02:07:53;;;;;;;4.83;3.40;;;6.30;99.90;;;;;;5033331;28;20212;-87
2021/10/31 02:10:26;;;;;;;4.53;4.03;;;6.20;99.90;;;;;;5032286;28;20215;-86
2021/10/31 02:15:35;;;;;;;5.70;5.10;;;6.10;99.90;;;;;;5175424;22;20265;-88
2021/10/31 02:18:13;;;;;;;14.80;13.20;;;6.10;99.90;;;;;;5036007;28;20201;-88
2021/10/31 02:20:53;;;;;;;11.97;9.77;;;6.10;99.90;;;;;;5030879;28;20220;-88
2021/10/31 02:23:28;;;;;;;8.30;4.97;;;6.10;99.90;;;;;;5029965;28;20244;-87
2021/10/31 02:26:04;;;;;;;4.53;3.47;;;6.10;99.90;;;;;;5029660;28;20289;-87
2021/10/31 02:28:40;;;;;;;5.70;3.17;;;6.00;99.90;;;;;;5032556;28;20205;-88
2021/10/31 02:31:12;;;;;;;5.73;3.50;;;5.90;99.90;;;;;;5028834;28;20276;-87
2021/10/31 02:33:44;;;;;;;5.73;4.17;;;6.00;99.90;;;;;;5029696;28;20232;-88
2021/10/31 02:36:17;;;;;;;5.10;3.50;;;5.90;99.90;;;;;;5030087;28;20206;-88
2021/10/31 02:38:54;;;;;;;4.87;3.97;;;5.80;99.90;;;;;;5028196;28;20210;-88
2021/10/31 02:41:25;;;;;;;4.97;4.47;;;5.80;99.90;;;;;;5025281;28;20267;-88
2021/10/31 02:43:58;;;;;;;4.80;4.27;;;5.80;99.90;;;;;;5031232;28;20205;-88
2021/10/31 02:46:33;;;;;;;5.30;4.80;;;5.80;99.90;;;;;;5029320;28;20292;-87
2021/10/31 02:49:08;;;;;;;4.70;3.90;;;5.70;99.90;;;;;;5030583;28;20208;-87
2021/10/31 02:51:49;;;;;;;4.10;3.67;;;5.70;99.90;;;;;;5029622;28;20248;-87
2021/10/31 02:54:33;;;;;;;6.50;4.67;;;5.60;99.90;;;;;;5006193;28;20213;-87
2021/10/31 02:57:25;;;;;;;7.27;5.13;;;5.60;99.90;;;;;;5006983;28;20269;-88
2021/10/31 03:00:02;;;;;;;8.90;8.00;;;5.60;99.90;;;;;;5016916;28;20209;-88
2021/10/31 03:02:34;;;;;;;13.23;7.60;;;5.60;99.90;;;;;;5027889;28;20225;-87
2021/10/31 03:05:07;;;;;;;9.60;7.67;;;5.50;99.90;;;;;;5031180;28;20280;-88
2021/10/31 03:07:39;;;;;;;10.53;7.00;;;5.50;99.90;;;;;;5027712;28;20249;-87
2021/10/31 03:10:18;;;;;;;10.00;7.60;;;5.50;99.90;;;;;;5013355;28;20205;-88
2021/10/31 03:12:52;;;;;;;12.00;7.27;;;5.40;99.90;;;;;;5008255;28;20210;-87
2021/10/31 03:15:24;;;;;;;7.37;5.77;;;5.40;99.90;;;;;;5027644;28;20369;-87
2021/10/31 03:17:57;;;;;;;8.70;5.77;;;5.30;99.90;;;;;;5026916;28;20217;-87
2021/10/31 03:20:37;;;;;;;8.97;6.30;;;5.30;99.90;;;;;;5034049;28;20205;-87
2021/10/31 03:23:14;;;;;;;10.13;6.63;;;5.30;99.90;;;;;;5034105;28;20216;-87
2021/10/31 03:25:52;;;;;;;13.30;11.00;;;5.30;99.90;;;;;;5020882;28;20217;-87
2021/10/31 03:28:25;;;;;;;36.17;26.47;;;5.30;99.90;;;;;;5027430;28;20205;-87
2021/10/31 03:30:57;;;;;;;9.20;6.73;;;5.20;99.90;;;;;;5029046;28;20214;-87
2021/10/31 03:33:30;;;;;;;9.23;5.50;;;5.10;99.90;;;;;;5033168;28;20197;-88
2021/10/31 03:36:05;;;;;;;7.43;5.40;;;5.10;99.90;;;;;;5033609;28;20228;-87
2021/10/31 03:38:36;;;;;;;5.57;4.93;;;5.10;99.90;;;;;;5017050;28;20639;-87
2021/10/31 03:41:10;;;;;;;6.43;4.97;;;5.00;99.90;;;;;;5030384;28;20206;-87
2021/10/31 03:43:43;;;;;;;5.93;4.63;;;5.00;99.90;;;;;;5031936;28;20197;-86
2021/10/31 03:46:17;;;;;;;7.17;4.70;;;5.00;99.90;;;;;;5033074;28;20229;-88
2021/10/31 03:48:50;;;;;;;5.13;4.10;;;5.00;99.90;;;;;;5037055;28;20214;-86
2021/10/31 03:51:24;;;;;;;3.83;3.20;;;4.90;99.90;;;;;;5039056;28;20212;-85
2021/10/31 03:53:59;;;;;;;4.73;3.50;;;4.90;99.90;;;;;;5038299;28;20209;-87
2021/10/31 03:56:32;;;;;;;6.23;3.97;;;4.90;99.90;;;;;;5033900;28;20242;-86
2021/10/31 03:59:04;;;;;;;6.00;4.13;;;4.90;99.90;;;;;;5031426;28;20209;-87
2021/10/31 04:01:41;;;;;;;4.33;3.23;;;4.80;99.90;;;;;;5036458;28;20221;-86
2021/10/31 04:04:13;;;;;;;5.43;3.17;;;4.80;99.90;;;;;;5037594;28;20272;-88
2021/10/31 04:06:45;;;;;;;5.23;3.40;;;4.80;99.90;;;;;;5026697;28;20686;-85
2021/10/31 04:09:17;;;;;;;6.37;3.10;;;4.80;99.90;;;;;;5030693;28;20236;-86
2021/10/31 04:11:51;;;;;;;5.53;3.17;;;4.80;99.90;;;;;;5022041;28;20194;-86
2021/10/31 04:14:22;;;;;;;6.53;4.60;;;4.70;99.90;;;;;;5030872;28;20220;-86
2021/10/31 04:16:55;;;;;;;7.80;4.47;;;4.70;99.90;;;;;;5024309;28;20276;-86
2021/10/31 04:19:26;;;;;;;5.97;4.10;;;4.60;99.90;;;;;;5031986;28;20189;-87
2021/10/31 04:21:58;;;;;;;4.17;3.77;;;4.60;99.90;;;;;;5033303;28;20206;-87
2021/10/31 04:24:33;;;;;;;4.97;3.73;;;4.50;99.90;;;;;;5027156;28;20220;-86
2021/10/31 04:27:09;;;;;;;4.33;3.93;;;4.50;99.90;;;;;;5025669;28;20256;-87
2021/10/31 04:29:42;;;;;;;5.70;3.90;;;4.40;99.90;;;;;;5019040;28;20271;-85
2021/10/31 04:32:13;;;;;;;5.37;3.73;;;4.50;99.90;;;;;;5019785;28;20228;-86
2021/10/31 04:34:45;;;;;;;5.83;3.93;;;4.50;99.90;;;;;;5020069;28;20703;-86
2021/10/31 04:37:17;;;;;;;5.20;4.20;;;4.50;99.90;;;;;;5025821;28;20221;-87
2021/10/31 04:39:49;;;;;;;7.30;5.17;;;4.40;99.90;;;;;;5030319;28;20212;-86
2021/10/31 04:42:29;;;;;;;12.67;5.87;;;4.40;99.90;;;;;;5031503;28;20198;-85
2021/10/31 04:45:02;;;;;;;10.00;6.60;;;4.30;99.90;;;;;;5024796;28;20225;-86
2021/10/31 04:47:33;;;;;;;13.10;6.87;;;4.30;99.90;;;;;;5018933;28;20694;-87
2021/10/31 04:50:05;;;;;;;10.37;6.77;;;4.30;99.90;;;;;;5020301;28;20209;-85
2021/10/31 04:52:42;;;;;;;11.13;7.30;;;4.30;99.90;;;;;;5021154;28;20219;-85
2021/10/31 04:55:14;;;;;;;11.47;6.80;;;4.30;99.90;;;;;;5017144;28;20212;-86
2021/10/31 04:57:47;;;;;;;11.27;6.43;;;4.30;99.90;;;;;;5019316;28;20687;-86
2021/10/31 05:00:19;;;;;;;9.73;6.57;;;4.30;99.90;;;;;;5029672;28;20218;-87
2021/10/31 05:02:51;;;;;;;10.50;5.77;;;4.20;99.90;;;;;;5019059;28;20206;-86
2021/10/31 05:05:23;;;;;;;10.53;5.83;;;4.20;99.90;;;;;;5001965;28;20273;-85
2021/10/31 05:07:56;;;;;;;9.70;6.13;;;4.20;99.90;;;;;;5020270;28;20701;-85
2021/10/31 05:10:30;;;;;;;8.20;5.80;;;4.10;99.90;;;;;;5032111;28;20236;-86
2021/10/31 05:15:52;;;;;;;31.83;21.53;;;4.10;99.90;;;;;;5033590;28;20218;-86
2021/10/31 05:18:24;;;;;;;15.03;10.63;;;4.10;99.90;;;;;;5020043;28;20186;-86
2021/10/31 05:20:55;;;;;;;8.73;5.97;;;4.10;99.90;;;;;;5008508;28;20262;-86
2021/10/31 05:23:27;;;;;;;9.93;6.10;;;4.10;99.90;;;;;;5013531;28;20205;-86
2021/10/31 05:26:03;;;;;;;11.57;5.37;;;4.10;99.90;;;;;;5036497;28;20217;-86
2021/10/31 05:28:37;;;;;;;10.03;5.90;;;4.00;99.90;;;;;;5020614;28;20228;-86
2021/10/31 05:31:08;;;;;;;8.13;5.30;;;4.00;99.90;;;;;;5021405;28;20194;-86
2021/10/31 05:33:40;;;;;;;11.50;5.77;;;4.00;99.90;;;;;;5023422;28;20209;-87
2021/10/31 05:36:11;;;;;;;8.77;4.63;;;4.00;99.90;;;;;;5022560;28;20220;-87
2021/10/31 05:38:43;;;;;;;7.70;3.97;;;4.00;99.90;;;;;;5023238;28;20232;-85
2021/10/31 05:41:15;;;;;;;7.17;4.07;;;4.00;99.90;;;;;;5029160;28;20210;-87
2021/10/31 05:43:48;;;;;;;7.23;4.27;;;4.00;99.90;;;;;;5022873;28;20205;-87
2021/10/31 05:46:19;;;;;;;8.93;3.53;;;4.00;99.90;;;;;;5028649;28;20233;-86
2021/10/31 05:48:51;;;;;;;5.97;3.63;;;4.00;99.90;;;;;;5035009;28;20233;-83
2021/10/31 05:51:23;;;;;;;4.40;3.53;;;4.00;99.90;;;;;;5269513;22;20249;-87
2021/10/31 05:53:55;;;;;;;7.53;3.80;;;4.00;99.90;;;;;;5057794;28;20185;-86
2021/10/31 05:56:28;;;;;;;6.97;3.73;;;4.00;99.90;;;;;;5150364;22;20225;-85
2021/10/31 06:01:45;;;;;;;5.17;3.50;;;4.00;99.90;;;;;;5337604;23;20232;-84
2021/10/31 06:04:17;;;;;;;5.23;3.70;;;3.90;99.90;;;;;;5057173;28;20232;-87
2021/10/31 06:06:49;;;;;;;6.67;4.40;;;3.90;99.90;;;;;;5055854;28;20189;-86
2021/10/31 06:09:20;;;;;;;5.53;4.00;;;3.90;99.90;;;;;;5055566;28;20259;-86
2021/10/31 06:11:51;;;;;;;5.27;3.80;;;3.90;99.90;;;;;;5054194;28;20205;-85
2021/10/31 06:14:25;;;;;;;6.60;4.87;;;3.80;99.90;;;;;;5053472;28;20231;-87
2021/10/31 06:17:02;;;;;;;6.83;4.67;;;3.80;99.90;;;;;;5046575;28;20291;-87
2021/10/31 06:19:34;;;;;;;5.83;4.03;;;3.80;99.90;;;;;;5158367;22;20245;-87
2021/10/31 06:22:06;;;;;;;7.47;4.57;;;3.80;99.90;;;;;;5008808;28;20589;-87
2021/10/31 06:24:38;;;;;;;6.23;4.17;;;3.80;99.90;;;;;;4997625;28;20293;-86
2021/10/31 06:27:10;;;;;;;7.67;3.90;;;3.80;99.90;;;;;;5000227;28;20214;-85
2021/10/31 06:29:41;;;;;;;4.83;3.80;;;3.80;99.90;;;;;;5001542;28;20225;-86
2021/10/31 06:32:14;;;;;;;5.63;3.30;;;3.70;99.90;;;;;;5001282;28;20209;-87
2021/10/31 06:34:45;;;;;;;7.57;3.80;;;3.70;99.90;;;;;;4999174;28;20214;-86
2021/10/31 06:37:17;;;;;;;4.17;3.70;;;3.70;99.90;;;;;;4981539;28;20211;-87
2021/10/31 06:39:47;;;;;;;6.30;3.70;;;3.60;99.90;;;;;;4979827;28;20655;-86
2021/10/31 06:42:19;;;;;;;5.87;3.70;;;3.60;99.90;;;;;;4980645;28;20266;-87
2021/10/31 06:44:50;;;;;;;6.30;3.57;;;3.60;99.90;;;;;;4997794;28;20218;-88
2021/10/31 06:47:23;;;;;;;7.03;4.00;;;3.50;99.90;;;;;;4998294;28;20233;-85
2021/10/31 06:49:55;;;;;;;5.23;3.30;;;3.50;99.90;;;;;;4997542;28;20210;-86
2021/10/31 06:52:26;;;;;;;6.87;3.87;;;3.50;99.90;;;;;;5001332;28;20558;-86
2021/10/31 06:54:58;;;;;;;5.93;4.23;;;3.50;99.90;;;;;;4994078;28;21037;-88
2021/10/31 06:57:29;;;;;;;7.93;4.20;;;3.50;99.90;;;;;;4999867;28;20281;-86
2021/10/31 07:00:00;;;;;;;6.60;3.83;;;3.50;99.90;;;;;;5002473;28;20202;-86
2021/10/31 07:02:33;;;;;;;8.07;4.23;;;3.50;99.90;;;;;;5004403;28;20253;-87
2021/10/31 07:05:05;;;;;;;5.90;4.27;;;3.40;99.90;;;;;;5014549;28;20214;-88
2021/10/31 07:07:36;;;;;;;7.97;4.20;;;3.40;99.90;;;;;;4996935;28;20273;-86
2021/10/31 07:10:08;;;;;;;5.07;4.00;;;3.30;99.90;;;;;;4997599;28;20215;-84
2021/10/31 07:12:40;;;;;;;7.03;4.47;;;3.30;99.90;;;;;;4992723;28;20222;-87
2021/10/31 07:15:12;;;;;;;9.07;5.87;;;3.30;99.90;;;;;;4991397;28;20242;-85
2021/10/31 07:17:45;;;;;;;10.33;5.83;;;3.30;99.90;;;;;;5001193;28;20256;-87
2021/10/31 07:20:16;;;;;;;9.70;5.30;;;3.20;99.90;;;;;;5001344;28;20247;-87
2021/10/31 07:22:47;;;;;;;8.73;5.23;;;3.20;99.90;;;;;;5001332;28;20229;-86
2021/10/31 07:25:20;;;;;;;8.20;5.17;;;3.20;99.90;;;;;;5002406;28;20267;-86
2021/10/31 07:27:52;;;;;;;10.13;5.37;;;3.20;99.90;;;;;;5008922;28;20199;-87
2021/10/31 07:30:23;;;;;;;8.37;4.67;;;3.20;99.90;;;;;;4999193;28;20199;-86
2021/10/31 07:33:00;;;;;;;6.07;4.47;;;3.20;99.90;;;;;;4996982;28;20206;-86
2021/10/31 07:35:32;;;;;;;7.27;5.20;;;3.20;99.90;;;;;;5006787;28;20198;-86
2021/10/31 07:38:04;;;;;;;6.93;4.63;;;3.20;99.90;;;;;;5003854;28;20213;-87
2021/10/31 07:40:37;;;;;;;6.90;4.27;;;3.10;99.90;;;;;;5004011;28;20290;-86
2021/10/31 07:43:09;;;;;;;7.13;4.60;;;3.10;99.90;;;;;;5004149;28;20206;-86
2021/10/31 07:45:42;;;;;;;6.63;4.53;;;3.10;99.90;;;;;;5003709;28;20211;-86
2021/10/31 07:48:15;;;;;;;6.07;4.10;;;3.10;99.90;;;;;;5003611;28;20225;-86
2021/10/31 07:50:53;;;;;;;6.37;4.80;;;3.10;99.90;;;;;;5002609;28;20806;-86
2021/10/31 07:53:24;;;;;;;7.37;5.27;;;3.10;99.90;;;;;;5001078;28;20663;-86
2021/10/31 07:55:56;;;;;;;7.20;4.73;;;3.10;99.90;;;;;;5020373;28;20213;-86
2021/10/31 07:58:30;;;;;;;9.67;5.33;;;3.10;99.90;;;;;;5012059;28;20317;-86
2021/10/31 08:01:02;;;;;;;9.93;5.00;;;3.10;99.90;;;;;;5000498;28;20209;-84
2021/10/31 08:03:36;;;;;;;9.67;4.90;;;3.10;99.90;;;;;;4999897;28;20198;-86
2021/10/31 08:06:12;;;;;;;7.53;4.83;;;3.10;99.90;;;;;;4999773;28;20549;-86
2021/10/31 08:08:43;;;;;;;9.47;5.60;;;3.00;99.90;;;;;;5000710;28;20301;-86
2021/10/31 08:11:14;;;;;;;8.70;5.43;;;3.00;99.90;;;;;;5002347;28;20225;-86
2021/10/31 08:13:48;;;;;;;9.27;4.80;;;3.00;99.90;;;;;;5026635;28;20209;-85
2021/10/31 08:16:22;;;;;;;7.13;5.13;;;3.00;99.90;;;;;;5021789;28;20209;-87
2021/10/31 08:18:55;;;;;;;9.70;5.33;;;3.00;99.90;;;;;;5031943;28;20614;-85
2021/10/31 08:21:27;;;;;;;5.53;4.53;;;3.00;99.90;;;;;;5010386;28;20569;-84
2021/10/31 08:23:58;;;;;;;8.63;5.37;;;3.00;99.90;;;;;;5000701;28;20242;-86
2021/10/31 08:26:30;;;;;;;6.87;5.50;;;2.90;99.90;;;;;;5003942;28;20202;-87
2021/10/31 08:29:02;;;;;;;8.97;4.93;;;2.90;99.90;;;;;;5012794;28;20234;-85
2021/10/31 08:31:38;;;;;;;9.17;5.10;;;2.90;99.90;;;;;;5010590;28;20254;-86
2021/10/31 08:34:14;;;;;;;7.00;5.30;;;2.80;99.90;;;;;;5004709;28;20210;-87
2021/10/31 08:36:56;;;;;;;7.50;5.13;;;2.90;99.90;;;;;;4999157;28;20579;-86
2021/10/31 08:39:28;;;;;;;5.90;4.77;;;2.80;99.90;;;;;;4985391;28;20241;-85
2021/10/31 08:41:59;;;;;;;7.70;5.10;;;2.80;99.90;;;;;;4979650;28;20231;-87
2021/10/31 08:44:31;;;;;;;7.00;4.40;;;2.80;99.90;;;;;;4979707;28;20297;-86
2021/10/31 08:47:02;;;;;;;7.53;4.97;;;2.80;99.90;;;;;;4982729;28;20202;-86
2021/10/31 08:49:36;;;;;;;6.87;4.77;;;2.80;99.90;;;;;;4998705;28;20284;-85
2021/10/31 08:52:09;;;;;;;5.57;4.90;;;2.80;99.90;;;;;;5001627;28;20212;-87
2021/10/31 08:54:41;;;;;;;6.93;4.77;;;2.80;99.90;;;;;;4999376;28;20217;-85
2021/10/31 08:57:12;;;;;;;6.40;4.63;;;2.80;99.90;;;;;;4997702;28;20210;-86
2021/10/31 08:59:44;;;;;;;6.43;4.33;;;2.90;99.90;;;;;;4998555;28;20329;-86
2021/10/31 09:02:18;;;;;;;6.37;4.13;;;2.80;99.90;;;;;;4999201;28;20242;-87
2021/10/31 09:04:55;;;;;;;5.30;4.10;;;2.70;99.90;;;;;;5002795;28;20202;-88
2021/10/31 09:07:28;;;;;;;6.17;4.50;;;2.70;99.90;;;;;;5022127;28;20213;-87
2021/10/31 09:10:01;;;;;;;7.67;4.60;;;2.70;99.90;;;;;;5028197;28;20274;-87
2021/10/31 09:12:33;;;;;;;11.90;4.80;;;2.70;99.90;;;;;;5027779;28;20210;-87
2021/10/31 09:15:06;;;;;;;6.03;4.10;;;2.70;99.90;;;;;;5001085;28;20221;-87
2021/10/31 09:17:38;;;;;;;6.63;4.10;;;2.70;99.90;;;;;;4998123;28;20292;-86
2021/10/31 09:20:12;;;;;;;6.63;4.03;;;2.70;99.90;;;;;;5000839;28;20225;-88
2021/10/31 09:22:44;;;;;;;5.80;4.13;;;2.70;99.90;;;;;;5003480;28;20259;-87
2021/10/31 09:25:19;;;;;;;4.67;3.57;;;2.70;99.90;;;;;;5016978;28;20731;-87
2021/10/31 09:27:50;;;;;;;6.13;3.47;;;2.60;99.90;;;;;;5015898;28;20237;-87
2021/10/31 09:30:25;;;;;;;4.60;3.70;;;2.70;99.90;;;;;;5018158;28;20233;-87
2021/10/31 09:32:57;;;;;;;6.70;3.70;;;2.70;99.90;;;;;;5000176;28;20296;-87
2021/10/31 09:35:32;;;;;;;5.40;3.50;;;2.60;99.90;;;;;;4997098;28;20276;-85
2021/10/31 09:38:07;;;;;;;5.67;3.50;;;2.60;99.90;;;;;;4997127;28;20198;-87
2021/10/31 09:40:38;;;;;;;5.67;3.60;;;2.60;99.90;;;;;;5005115;28;20669;-87
2021/10/31 09:43:09;;;;;;;3.87;3.43;;;2.60;99.90;;;;;;5001758;28;20239;-86
2021/10/31 09:45:44;;;;;;;8.00;4.03;;;2.60;99.90;;;;;;4996783;28;20210;-86
2021/10/31 09:48:19;;;;;;;6.20;3.80;;;2.70;99.90;;;;;;4995665;28;20647;-87
2021/10/31 09:50:53;;;;;;;5.03;3.73;;;2.70;99.90;;;;;;4997283;28;20233;-86
2021/10/31 09:53:26;;;;;;;5.60;3.60;;;2.70;99.90;;;;;;4998440;28;20229;-86
2021/10/31 09:56:03;;;;;;;5.23;3.90;;;2.70;99.90;;;;;;4999073;28;20210;-86
2021/10/31 09:58:36;;;;;;;6.37;3.53;;;2.60;99.90;;;;;;4998221;28;20220;-86
2021/10/31 10:01:24;;;;;;;4.33;3.63;;;2.60;99.90;;;;;;4997475;28;20220;-85
2021/10/31 10:03:59;;;;;;;6.87;3.67;;;2.60;99.90;;;;;;4997891;28;20237;-87
2021/10/31 10:06:33;;;;;;;4.37;3.63;;;2.70;99.90;;;;;;4996401;28;20658;-87
2021/10/31 10:09:08;;;;;;;5.87;3.70;;;2.60;99.90;;;;;;4998305;28;20206;-87
2021/10/31 10:11:41;;;;;;;5.07;3.43;;;2.60;99.90;;;;;;4998404;28;20216;-87
2021/10/31 10:14:23;;;;;;;6.53;3.40;;;2.70;99.90;;;;;;4997943;28;20213;-88
2021/10/31 10:17:11;;;;;;;5.77;3.50;;;2.60;99.90;;;;;;5012026;28;20205;-87
2021/10/31 10:19:51;;;;;;;6.73;3.73;;;2.60;99.90;;;;;;5017257;28;20220;-87
2021/10/31 10:22:25;;;;;;;5.90;3.77;;;2.70;99.90;;;;;;5017855;28;20300;-87
2021/10/31 10:25:00;;;;;;;4.87;3.57;;;2.60;99.90;;;;;;5008790;28;20210;-88
2021/10/31 10:27:35;;;;;;;8.10;3.73;;;2.60;99.90;;;;;;4998891;28;20359;-87
2021/10/31 10:30:14;;;;;;;3.50;2.90;;;2.60;99.90;;;;;;4999358;28;20244;-85
2021/10/31 10:32:51;;;;;;;4.10;2.80;;;2.60;99.90;;;;;;5000583;28;20273;-86
2021/10/31 10:35:24;;;;;;;4.50;2.97;;;2.60;99.90;;;;;;4979118;28;20217;-87
2021/10/31 10:37:58;;;;;;;5.07;3.10;;;2.60;99.90;;;;;;4997019;28;20230;-85
2021/10/31 10:40:29;;;;;;;3.90;2.90;;;2.60;99.90;;;;;;5010108;28;20244;-87
2021/10/31 10:43:02;;;;;;;5.37;3.90;;;2.60;99.90;;;;;;5024353;28;20224;-86
2021/10/31 10:45:36;;;;;;;5.77;4.00;;;2.70;99.90;;;;;;5031707;28;20236;-87
2021/10/31 10:48:08;;;;;;;5.47;4.07;;;2.60;99.90;;;;;;5025881;28;20209;-86
2021/10/31 10:50:44;;;;;;;8.27;3.83;;;2.60;99.90;;;;;;5020064;28;20324;-86
2021/10/31 10:53:19;;;;;;;5.97;4.17;;;2.60;99.90;;;;;;5019170;28;20356;-86
2021/10/31 10:55:51;;;;;;;6.47;3.93;;;2.60;99.90;;;;;;5016728;28;20236;-86
2021/10/31 10:58:23;;;;;;;5.37;3.70;;;2.50;99.90;;;;;;5008612;28;20236;-86
2021/10/31 11:00:58;;;;;;;4.97;3.80;;;2.50;99.90;;;;;;4996753;28;20206;-88
2021/10/31 11:03:32;;;;;;;6.33;4.03;;;2.50;99.90;;;;;;4997422;28;20280;-86
2021/10/31 11:06:05;;;;;;;4.50;3.80;;;2.50;99.90;;;;;;4996275;28;20741;-86
2021/10/31 11:08:38;;;;;;;4.43;3.57;;;2.50;99.90;;;;;;4996443;28;20298;-86
2021/10/31 11:11:15;;;;;;;6.13;3.70;;;2.40;99.90;;;;;;4996967;28;20233;-88
2021/10/31 11:13:55;;;;;;;7.90;3.80;;;2.40;99.90;;;;;;4996842;28;20206;-87
2021/10/31 11:16:33;;;;;;;3.63;3.00;;;2.40;99.90;;;;;;4996688;28;20206;-87
2021/10/31 11:19:04;;;;;;;4.60;3.50;;;2.40;99.90;;;;;;4997188;28;20216;-86
2021/10/31 11:21:35;;;;;;;4.60;3.37;;;2.40;99.90;;;;;;4995846;28;20214;-88
2021/10/31 11:24:09;;;;;;;5.43;3.33;;;2.40;99.90;;;;;;4977622;28;20199;-86
2021/10/31 11:26:42;;;;;;;6.67;3.70;;;2.40;99.90;;;;;;4985581;28;20210;-87
2021/10/31 11:29:14;;;;;;;4.67;3.60;;;2.30;99.90;;;;;;4999310;28;20309;-87
2021/10/31 11:31:48;;;;;;;5.60;3.57;;;2.30;99.90;;;;;;4996643;28;20255;-86
2021/10/31 11:34:25;;;;;;;7.37;3.50;;;2.40;99.90;;;;;;4997331;28;20206;-87
2021/10/31 11:37:00;;;;;;;4.43;3.30;;;2.30;99.90;;;;;;5013624;28;20258;-85
2021/10/31 11:39:33;;;;;;;5.33;3.90;;;2.30;99.90;;;;;;5015814;28;20228;-87
2021/10/31 11:42:08;;;;;;;5.90;3.60;;;2.30;99.90;;;;;;4999830;28;20237;-86
2021/10/31 11:45:08;;;;;;;6.50;3.77;;;2.30;99.90;;;;;;5000079;28;20218;-87
2021/10/31 11:47:42;;;;;;;4.63;3.33;;;2.30;99.90;;;;;;4985242;28;20217;-87
2021/10/31 11:50:22;;;;;;;4.57;3.60;;;2.30;99.90;;;;;;4999548;28;20570;-87
2021/10/31 11:53:00;;;;;;;4.53;3.30;;;2.30;99.90;;;;;;4999784;28;20286;-88
2021/10/31 11:55:55;;;;;;;5.67;3.67;;;2.30;99.90;;;;;;4997168;28;20263;-87
2021/10/31 11:58:46;;;;;;;5.87;3.27;;;2.30;99.90;;;;;;4999762;28;20213;-87
2021/10/31 12:01:20;;;;;;;4.67;3.60;;;2.30;99.90;;;;;;4998872;28;20198;-87
2021/10/31 12:03:57;;;;;;;4.37;3.13;;;2.20;99.90;;;;;;4997867;28;20206;-86
2021/10/31 12:06:59;;;;;;;5.07;3.57;;;2.20;99.90;;;;;;4998586;28;20209;-87
2021/10/31 12:09:34;;;;;;;5.97;4.00;;;2.20;99.90;;;;;;4999775;28;20224;-87
2021/10/31 12:12:24;;;;;;;5.90;4.23;;;2.20;99.90;;;;;;4999266;28;20237;-88
2021/10/31 12:15:04;;;;;;;4.43;3.40;;;2.20;99.90;;;;;;4999012;28;20560;-88
2021/10/31 12:18:10;;;;;;;6.17;3.70;;;2.20;99.90;;;;;;4999259;28;20245;-87
2021/10/31 12:20:56;;;;;;;4.43;3.40;;;2.20;99.90;;;;;;4999298;28;20231;-88
2021/10/31 12:23:32;;;;;;;4.23;3.83;;;2.20;99.90;;;;;;4999114;28;20210;-87
2021/10/31 12:26:21;;;;;;;4.10;3.30;;;2.20;99.90;;;;;;4998329;28;20249;-88
2021/10/31 12:29:10;;;;;;;5.83;3.50;;;2.20;99.90;;;;;;5007311;28;20210;-88
2021/10/31 12:31:52;;;;;;;4.50;2.87;;;2.20;99.90;;;;;;5018793;28;20244;-87
2021/10/31 12:34:26;;;;;;;3.80;3.10;;;2.20;99.90;;;;;;5018933;28;20293;-87
2021/10/31 12:36:59;;;;;;;5.57;3.50;;;2.20;99.90;;;;;;5014121;28;20264;-87
2021/10/31 12:40:06;;;;;;;5.87;3.17;;;2.20;99.90;;;;;;4999297;28;20236;-87
2021/10/31 12:42:48;;;;;;;4.67;3.30;;;2.20;99.90;;;;;;4999983;28;20228;-86
2021/10/31 12:45:28;;;;;;;5.43;3.30;;;2.20;99.90;;;;;;4999456;28;20206;-87
2021/10/31 12:48:12;;;;;;;4.07;3.30;;;2.20;99.90;;;;;;4980436;28;20250;-89
2021/10/31 12:50:49;;;;;;;4.17;2.73;;;2.20;99.90;;;;;;4980234;28;20210;-88
2021/10/31 12:53:20;;;;;;;3.93;3.00;;;2.10;99.90;;;;;;4981279;28;20226;-87
2021/10/31 12:55:55;;;;;;;5.37;2.77;;;2.20;99.90;;;;;;4982173;28;20266;-87
2021/10/31 12:58:27;;;;;;;6.70;2.90;;;2.20;99.90;;;;;;4985314;28;20275;-90
2021/10/31 13:01:01;;;;;;;3.60;2.80;;;2.20;99.90;;;;;;4992178;28;20312;-88
2021/10/31 13:03:35;;;;;;;6.70;3.10;;;2.20;99.90;;;;;;4992034;28;20225;-88
2021/10/31 13:06:06;;;;;;;4.17;2.80;;;2.20;99.90;;;;;;4995339;28;20267;-88
2021/10/31 13:08:37;;;;;;;5.57;2.87;;;2.20;99.90;;;;;;4998605;28;20280;-87
2021/10/31 13:11:14;;;;;;;4.47;2.90;;;2.20;99.90;;;;;;4999906;28;20229;-87
2021/10/31 13:13:45;;;;;;;3.97;2.80;;;2.10;99.90;;;;;;4999966;28;20205;-87
2021/10/31 13:16:21;;;;;;;4.27;3.00;;;2.20;99.90;;;;;;4991189;28;20664;-86
2021/10/31 13:18:53;;;;;;;4.53;3.17;;;2.30;99.90;;;;;;4990092;28;20210;-88
2021/10/31 13:21:24;;;;;;;3.70;2.73;;;2.20;99.90;;;;;;4995614;28;20281;-88
2021/10/31 13:23:58;;;;;;;9.07;3.50;;;2.20;99.90;;;;;;5026145;28;20202;-87
2021/10/31 13:26:30;;;;;;;4.03;3.00;;;2.20;99.90;;;;;;5022634;28;20211;-89
2021/10/31 13:29:02;;;;;;;3.07;2.37;;;2.20;99.90;;;;;;5007300;28;20215;-88
2021/10/31 13:31:37;;;;;;;4.07;3.00;;;2.20;99.90;;;;;;5014473;28;20241;-86
2021/10/31 13:34:10;;;;;;;3.83;2.70;;;2.20;99.90;;;;;;5017060;28;20205;-87
2021/10/31 13:36:41;;;;;;;4.20;2.83;;;2.20;99.90;;;;;;4998290;28;20218;-88
2021/10/31 13:39:15;;;;;;;3.87;2.97;;;2.20;99.90;;;;;;4998612;28;20285;-87
2021/10/31 13:41:47;;;;;;;4.83;2.63;;;2.20;99.90;;;;;;4997308;28;20683;-87
2021/10/31 13:44:24;;;;;;;3.00;2.70;;;2.10;99.90;;;;;;4998522;28;20611;-87